createdAt,value
2023-03-06T00:00:25.290Z,100.00
2023-03-06T00:02:52.610Z,100.00
2023-03-06T00:05:19.809Z,100.00
2023-03-06T00:07:46.658Z,100.00
2023-03-06T00:10:18.733Z,100.00
2023-03-06T00:12:45.662Z,100.00
2023-03-06T00:15:14.046Z,100.00
2023-03-06T00:17:41.159Z,100.00
2023-03-06T00:20:09.628Z,100.00
2023-03-06T00:22:36.508Z,100.00
2023-03-06T00:25:03.328Z,100.00
2023-03-06T00:27:31.727Z,100.00
2023-03-06T00:30:01.297Z,100.00
2023-03-06T00:32:29.010Z,100.00
2023-03-06T00:34:56.893Z,100.00
2023-03-06T00:37:24.697Z,100.00
2023-03-06T00:39:52.374Z,100.00
2023-03-06T00:42:20.201Z,100.00
2023-03-06T00:44:47.335Z,100.00
2023-03-06T00:47:17.391Z,100.00
2023-03-06T00:49:45.227Z,100.00
2023-03-06T00:52:13.364Z,100.00
2023-03-06T00:54:40.715Z,100.00
2023-03-06T00:57:08.016Z,100.00
2023-03-06T00:59:35.085Z,100.00
2023-03-06T01:02:02.239Z,100.00
2023-03-06T01:04:29.301Z,100.00
2023-03-06T01:06:56.591Z,100.00
2023-03-06T01:09:24.626Z,100.00
2023-03-06T01:11:53.925Z,100.00
2023-03-06T01:14:20.916Z,100.00
2023-03-06T01:16:48.208Z,100.00
2023-03-06T01:19:17.983Z,100.00
2023-03-06T01:21:45.652Z,100.00
2023-03-06T01:24:12.444Z,100.00
2023-03-06T01:26:39.332Z,100.00
2023-03-06T01:29:06.527Z,100.00
2023-03-06T01:31:33.745Z,100.00
2023-03-06T01:34:00.694Z,100.00
2023-03-06T01:36:27.555Z,100.00
2023-03-06T01:38:54.352Z,100.00
2023-03-06T01:41:21.681Z,100.00
2023-03-06T01:43:49.249Z,100.00
2023-03-06T01:46:41.996Z,100.00
2023-03-06T01:49:16.998Z,100.00
2023-03-06T01:51:52.560Z,100.00
2023-03-06T01:54:26.919Z,100.00
2023-03-06T01:56:59.475Z,100.00
2023-03-06T01:59:27.572Z,100.00
2023-03-06T02:01:55.446Z,100.00
2023-03-06T02:04:22.417Z,100.00
2023-03-06T02:06:50.937Z,100.00
2023-03-06T02:09:17.840Z,100.00
2023-03-06T02:11:46.444Z,100.00
2023-03-06T02:14:15.821Z,100.00
2023-03-06T02:16:44.184Z,100.00
2023-03-06T02:19:47.994Z,100.00
2023-03-06T02:22:14.801Z,100.00
2023-03-06T02:24:53.447Z,100.00
2023-03-06T02:27:20.891Z,100.00
2023-03-06T02:29:49.398Z,100.00
2023-03-06T02:32:16.488Z,100.00
2023-03-06T02:34:53.633Z,100.00
2023-03-06T02:37:21.887Z,100.00
2023-03-06T02:39:55.333Z,100.00
2023-03-06T02:42:25.386Z,100.00
2023-03-06T02:44:55.344Z,100.00
2023-03-06T02:47:22.308Z,100.00
2023-03-06T02:49:49.477Z,100.00
2023-03-06T02:52:18.149Z,100.00
2023-03-06T02:54:45.085Z,100.00
2023-03-06T02:57:12.234Z,100.00
2023-03-06T02:59:39.287Z,100.00
2023-03-06T03:02:07.666Z,100.00
2023-03-06T03:04:34.995Z,100.00
2023-03-06T03:07:02.891Z,100.00
2023-03-06T03:09:36.888Z,100.00
2023-03-06T03:12:07.884Z,100.00
2023-03-06T03:14:35.431Z,100.00
2023-03-06T03:17:03.158Z,100.00
2023-03-06T03:19:30.159Z,100.00
2023-03-06T03:21:57.106Z,100.00
2023-03-06T03:24:24.722Z,100.00
2023-03-06T03:26:52.068Z,100.00
2023-03-06T03:29:20.716Z,100.00
2023-03-06T03:31:48.703Z,100.00
2023-03-06T03:34:16.278Z,100.00
2023-03-06T03:36:43.501Z,100.00
2023-03-06T03:39:12.026Z,100.00
2023-03-06T03:41:39.291Z,100.00
2023-03-06T03:44:08.622Z,100.00
2023-03-06T03:46:35.663Z,100.00
2023-03-06T03:49:04.562Z,100.00
2023-03-06T03:51:32.228Z,100.00
2023-03-06T03:53:59.843Z,100.00
2023-03-06T03:56:29.909Z,100.00
2023-03-06T03:59:09.116Z,100.00
2023-03-06T04:01:42.718Z,100.00
2023-03-06T04:04:09.656Z,100.00
2023-03-06T04:06:36.988Z,100.00
2023-03-06T04:09:04.981Z,100.00
2023-03-06T04:11:33.492Z,100.00
2023-03-06T04:14:00.892Z,100.00
2023-03-06T04:16:27.769Z,100.00
2023-03-06T04:18:55.520Z,100.00
2023-03-06T04:21:22.593Z,100.00
2023-03-06T04:23:49.388Z,100.00
2023-03-06T04:26:16.272Z,100.00
2023-03-06T04:28:43.345Z,100.00
2023-03-06T04:31:12.986Z,100.00
2023-03-06T04:33:40.197Z,100.00
2023-03-06T04:36:07.858Z,100.00
2023-03-06T04:38:34.737Z,100.00
2023-03-06T04:41:04.218Z,100.00
2023-03-06T04:43:31.285Z,100.00
2023-03-06T04:45:58.544Z,100.00
2023-03-06T04:48:25.469Z,100.00
2023-03-06T04:50:52.352Z,100.00
2023-03-06T04:53:21.423Z,100.00
2023-03-06T04:55:48.237Z,100.00
2023-03-06T04:58:15.968Z,100.00
2023-03-06T05:00:42.805Z,100.00
2023-03-06T05:03:09.870Z,100.00
2023-03-06T05:05:36.670Z,100.00
2023-03-06T05:08:03.696Z,100.00
2023-03-06T05:10:30.540Z,100.00
2023-03-06T05:12:57.437Z,100.00
2023-03-06T05:15:24.307Z,100.00
2023-03-06T05:17:52.346Z,100.00
2023-03-06T05:20:19.168Z,100.00
2023-03-06T05:22:45.970Z,100.00
2023-03-06T05:25:13.168Z,100.00
2023-03-06T05:27:42.098Z,100.00
2023-03-06T05:30:12.129Z,100.00
2023-03-06T05:32:39.149Z,100.00
2023-03-06T05:35:06.903Z,100.00
2023-03-06T05:37:34.178Z,100.00
2023-03-06T05:40:01.201Z,100.00
2023-03-06T05:42:30.978Z,100.00
2023-03-06T05:44:57.962Z,100.00
2023-03-06T05:47:24.782Z,100.00
2023-03-06T05:49:51.592Z,100.00
2023-03-06T05:52:18.428Z,100.00
2023-03-06T05:54:50.477Z,100.00
2023-03-06T05:57:20.030Z,100.00
2023-03-06T05:59:47.247Z,100.00
2023-03-06T06:02:14.113Z,100.00
2023-03-06T06:04:41.022Z,100.00
2023-03-06T06:07:07.937Z,100.00
2023-03-06T06:09:34.806Z,100.00
2023-03-06T06:12:03.794Z,100.00
2023-03-06T06:14:34.500Z,100.00
2023-03-06T06:17:01.582Z,100.00
2023-03-06T06:19:30.056Z,100.00
2023-03-06T06:21:57.816Z,100.00
2023-03-06T06:24:26.456Z,100.00
2023-03-06T06:26:55.377Z,100.00
2023-03-06T06:29:23.561Z,100.00
2023-03-06T06:31:51.514Z,100.00
2023-03-06T06:34:19.194Z,100.00
2023-03-06T06:36:46.469Z,100.00
2023-03-06T06:39:18.132Z,100.00
2023-03-06T06:41:59.803Z,100.00
2023-03-06T06:44:32.700Z,100.00
2023-03-06T06:47:21.773Z,100.00
2023-03-06T06:49:51.127Z,100.00
2023-03-06T06:52:19.002Z,100.00
2023-03-06T06:54:46.138Z,100.00
2023-03-06T06:57:13.384Z,100.00
2023-03-06T06:59:40.381Z,100.00
2023-03-06T07:02:07.419Z,100.00
2023-03-06T07:04:34.410Z,100.00
2023-03-06T07:07:01.592Z,100.00
2023-03-06T07:09:30.957Z,100.00
2023-03-06T07:11:58.114Z,100.00
2023-03-06T07:14:25.157Z,100.00
2023-03-06T07:16:52.119Z,100.00
2023-03-06T07:19:19.124Z,100.00
2023-03-06T07:21:46.042Z,100.00
2023-03-06T07:24:12.863Z,100.00
2023-03-06T07:26:39.842Z,100.00
2023-03-06T07:29:06.684Z,100.00
2023-03-06T07:31:33.613Z,100.00
2023-03-06T07:34:01.872Z,100.00
2023-03-06T07:36:29.982Z,100.00
2023-03-06T07:38:56.722Z,100.00
2023-03-06T07:41:23.666Z,100.00
2023-03-06T07:43:50.547Z,100.00
2023-03-06T07:46:17.893Z,100.00
2023-03-06T07:48:44.870Z,100.00
2023-03-06T07:51:20.506Z,100.00
2023-03-06T07:53:48.666Z,100.00
2023-03-06T07:56:15.640Z,100.00
2023-03-06T07:58:44.926Z,99.30
2023-03-06T08:01:14.494Z,96.46
2023-03-06T08:03:41.447Z,96.20
2023-03-06T08:06:10.063Z,94.67
2023-03-06T08:08:39.458Z,95.96
2023-03-06T08:11:07.754Z,96.31
2023-03-06T08:13:35.307Z,98.18
2023-03-06T08:16:02.799Z,99.23
2023-03-06T08:18:29.880Z,99.08
2023-03-06T08:21:08.763Z,100.00
2023-03-06T08:23:36.656Z,100.00
2023-03-06T08:26:13.054Z,99.68
2023-03-06T08:28:40.344Z,95.82
2023-03-06T08:31:11.461Z,100.00
2023-03-06T08:33:39.391Z,97.45
2023-03-06T08:36:06.704Z,99.12
2023-03-06T08:38:33.603Z,97.55
2023-03-06T08:41:00.474Z,98.42
2023-03-06T08:43:27.423Z,98.90
2023-03-06T08:46:00.932Z,96.04
2023-03-06T08:48:28.304Z,93.00
2023-03-06T08:50:55.369Z,89.93
2023-03-06T08:53:36.664Z,90.59
2023-03-06T08:56:16.056Z,92.48
2023-03-06T08:58:42.956Z,92.43
2023-03-06T09:01:18.968Z,91.46
2023-03-06T09:03:45.950Z,93.42
2023-03-06T09:06:13.448Z,94.86
2023-03-06T09:08:43.319Z,88.88
2023-03-06T09:11:14.787Z,87.12
2023-03-06T09:13:43.302Z,87.29
2023-03-06T09:16:11.279Z,85.65
2023-03-06T09:18:38.203Z,84.51
2023-03-06T09:21:06.268Z,79.19
2023-03-06T09:23:34.043Z,77.99
2023-03-06T09:26:02.204Z,77.38
2023-03-06T09:28:29.079Z,77.41
2023-03-06T09:30:56.153Z,76.70
2023-03-06T09:33:23.505Z,76.00
2023-03-06T09:35:53.751Z,81.98
2023-03-06T09:38:23.045Z,77.51
2023-03-06T09:41:04.575Z,79.29
2023-03-06T09:43:38.251Z,77.74
2023-03-06T09:46:31.324Z,78.09
2023-03-06T09:49:15.304Z,72.71
2023-03-06T09:52:00.669Z,73.05
2023-03-06T09:54:44.572Z,77.41
2023-03-06T09:57:25.397Z,74.59
2023-03-06T09:59:55.979Z,71.50
2023-03-06T10:02:38.742Z,73.54
2023-03-06T10:05:10.770Z,75.17
2023-03-06T10:07:45.386Z,74.01
2023-03-06T10:10:22.487Z,71.91
2023-03-06T10:13:04.265Z,74.65
2023-03-06T10:15:34.687Z,72.89
2023-03-06T10:18:03.346Z,70.59
2023-03-06T10:20:53.662Z,68.12
2023-03-06T10:24:05.625Z,66.86
2023-03-06T10:26:43.609Z,64.97
2023-03-06T10:29:14.140Z,68.05
2023-03-06T10:31:45.330Z,69.52
2023-03-06T10:34:23.059Z,69.91
2023-03-06T10:36:50.704Z,69.89
2023-03-06T10:39:20.652Z,70.36
2023-03-06T10:41:48.924Z,67.64
2023-03-06T10:44:16.122Z,66.20
2023-03-06T10:46:46.035Z,71.15
2023-03-06T10:49:21.762Z,71.03
2023-03-06T10:52:07.255Z,69.31
2023-03-06T10:54:40.343Z,69.60
2023-03-06T10:57:24.850Z,69.35
2023-03-06T10:59:54.966Z,68.70
2023-03-06T11:02:24.182Z,66.67
2023-03-06T11:04:55.605Z,72.97
2023-03-06T11:07:26.003Z,76.04
2023-03-06T11:09:58.685Z,73.79
2023-03-06T11:12:34.539Z,71.99
2023-03-06T11:15:10.270Z,73.88
2023-03-06T11:18:04.832Z,70.19
2023-03-06T11:20:51.466Z,66.15
2023-03-06T11:23:23.102Z,66.85
2023-03-06T11:26:18.008Z,64.91
2023-03-06T11:29:16.554Z,70.62
2023-03-06T11:31:48.297Z,71.77
2023-03-06T11:34:23.426Z,74.76
2023-03-06T11:36:55.642Z,73.40
2023-03-06T11:39:37.292Z,72.68
2023-03-06T11:42:21.963Z,74.56
2023-03-06T11:45:17.444Z,72.96
2023-03-06T11:47:53.492Z,70.17
2023-03-06T11:50:29.153Z,69.07
2023-03-06T11:53:05.505Z,66.49
2023-03-06T11:55:51.141Z,68.88
2023-03-06T11:58:29.748Z,70.57
2023-03-06T12:01:06.493Z,69.83
2023-03-06T12:03:52.194Z,70.14
2023-03-06T12:06:18.927Z,71.17
2023-03-06T12:08:48.608Z,71.61
2023-03-06T12:11:23.250Z,71.75
2023-03-06T12:14:14.254Z,73.10
2023-03-06T12:16:48.936Z,71.81
2023-03-06T12:20:10.000Z,75.71
2023-03-06T12:22:57.564Z,78.27
2023-03-06T12:25:26.803Z,82.96
2023-03-06T12:28:32.226Z,82.54
2023-03-06T12:31:04.898Z,81.43
2023-03-06T12:33:43.362Z,83.93
2023-03-06T12:39:45.725Z,82.50
2023-03-06T12:42:23.712Z,82.26
2023-03-06T12:44:56.397Z,81.42
2023-03-06T12:47:28.058Z,81.04
2023-03-06T12:50:03.297Z,81.85
2023-03-06T12:52:31.909Z,83.41
2023-03-06T12:55:01.370Z,82.50
2023-03-06T12:57:29.851Z,80.63
2023-03-06T12:59:56.664Z,79.97
2023-03-06T13:02:32.634Z,82.33
2023-03-06T13:05:20.926Z,81.83
2023-03-06T13:07:58.678Z,82.95
2023-03-06T13:10:33.868Z,80.14
2023-03-06T13:13:01.790Z,79.83
2023-03-06T13:15:45.956Z,78.14
2023-03-06T13:18:22.075Z,81.36
2023-03-06T13:20:51.012Z,77.24
2023-03-06T13:23:30.064Z,73.06
2023-03-06T13:25:59.903Z,72.99
2023-03-06T13:28:46.317Z,73.81
2023-03-06T13:31:33.509Z,72.53
2023-03-06T13:34:02.609Z,70.85
2023-03-06T13:36:34.486Z,70.39
2023-03-06T13:39:04.982Z,73.27
2023-03-06T13:41:31.795Z,71.58
2023-03-06T13:44:00.944Z,70.53
2023-03-06T13:46:31.319Z,72.88
2023-03-06T13:49:13.066Z,69.42
2023-03-06T13:51:43.682Z,72.68
2023-03-06T13:54:16.923Z,74.47
2023-03-06T13:57:02.643Z,77.59
2023-03-06T14:00:08.245Z,75.69
2023-03-06T14:02:55.382Z,76.16
2023-03-06T14:05:23.153Z,79.96
2023-03-06T14:08:23.966Z,80.23
2023-03-06T14:11:06.109Z,78.60
2023-03-06T14:13:47.833Z,79.63
2023-03-06T14:16:21.081Z,81.07
2023-03-06T14:18:50.699Z,79.44
2023-03-06T14:21:33.594Z,79.11
2023-03-06T14:24:03.115Z,79.61
2023-03-06T14:26:40.447Z,79.11
2023-03-06T14:29:21.250Z,77.51
2023-03-06T14:31:53.911Z,81.21
2023-03-06T14:34:37.337Z,82.99
2023-03-06T14:37:07.836Z,82.03
2023-03-06T14:39:36.719Z,83.83
2023-03-06T14:42:18.462Z,88.35
2023-03-06T14:44:49.933Z,90.17
2023-03-06T14:47:33.521Z,91.32
2023-03-06T14:50:25.321Z,91.63
2023-03-06T14:53:04.260Z,92.38
2023-03-06T14:55:35.108Z,93.76
2023-03-06T14:58:17.493Z,93.35
2023-03-06T15:00:49.683Z,94.02
2023-03-06T15:03:24.549Z,94.09
2023-03-06T15:05:52.034Z,93.80
2023-03-06T15:08:27.195Z,93.38
2023-03-06T15:10:57.012Z,93.78
2023-03-06T15:13:26.823Z,95.46
2023-03-06T15:16:04.714Z,94.33
2023-03-06T15:18:35.587Z,92.71
2023-03-06T15:21:36.332Z,92.39
2023-03-06T15:24:36.623Z,92.43
2023-03-06T15:27:06.010Z,91.22
2023-03-06T15:29:33.871Z,91.05
2023-03-06T15:32:33.682Z,89.59
2023-03-06T15:35:25.684Z,87.74
2023-03-06T15:37:52.922Z,88.61
2023-03-06T15:40:23.220Z,89.24
2023-03-06T15:42:50.250Z,88.49
2023-03-06T15:45:25.941Z,89.54
2023-03-06T15:47:54.605Z,88.73
2023-03-06T15:50:24.969Z,86.76
2023-03-06T15:52:52.197Z,86.17
2023-03-06T15:55:22.044Z,87.87
2023-03-06T15:57:55.243Z,88.32
2023-03-06T16:00:34.254Z,88.20
2023-03-06T16:03:03.148Z,91.82
2023-03-06T16:05:30.745Z,92.21
2023-03-06T16:07:57.613Z,94.59
2023-03-06T16:10:27.435Z,95.65
2023-03-06T16:12:57.066Z,97.80
2023-03-06T16:15:29.823Z,97.85
2023-03-06T16:17:57.734Z,100.00
2023-03-06T16:20:27.461Z,100.00
2023-03-06T16:22:55.039Z,100.00
2023-03-06T16:25:23.650Z,100.00
2023-03-06T16:27:58.156Z,100.00
2023-03-06T16:30:35.700Z,100.00
2023-03-06T16:33:03.712Z,100.00
2023-03-06T16:35:30.985Z,100.00
2023-03-06T16:37:58.851Z,100.00
2023-03-06T16:40:25.632Z,100.00
2023-03-06T16:42:55.022Z,100.00
2023-03-06T16:45:23.310Z,100.00
2023-03-06T16:47:50.759Z,100.00
2023-03-06T16:50:20.185Z,100.00
2023-03-06T16:52:47.009Z,100.00
2023-03-06T16:55:16.104Z,100.00
2023-03-06T16:57:43.001Z,100.00
2023-03-06T17:00:11.526Z,100.00
2023-03-06T17:02:38.964Z,100.00
2023-03-06T17:05:07.379Z,100.00
2023-03-06T17:07:35.825Z,100.00
2023-03-06T17:10:07.632Z,100.00
2023-03-06T17:12:34.632Z,100.00
2023-03-06T17:15:02.056Z,100.00
2023-03-06T17:17:30.543Z,100.00
2023-03-06T17:19:58.159Z,100.00
2023-03-06T17:22:25.365Z,100.00
2023-03-06T17:24:52.383Z,100.00
2023-03-06T17:27:21.116Z,100.00
2023-03-06T17:29:48.104Z,100.00
2023-03-06T17:32:14.996Z,100.00
2023-03-06T17:34:42.031Z,100.00
2023-03-06T17:37:08.949Z,100.00
2023-03-06T17:39:38.154Z,100.00
2023-03-06T17:42:06.690Z,100.00
2023-03-06T17:44:34.436Z,100.00
2023-03-06T17:47:02.920Z,100.00
2023-03-06T17:49:29.962Z,100.00
2023-03-06T17:51:59.847Z,100.00
2023-03-06T17:54:27.420Z,100.00
2023-03-06T17:56:54.293Z,100.00
2023-03-06T17:59:21.082Z,100.00
2023-03-06T18:01:48.080Z,100.00
2023-03-06T18:04:15.048Z,100.00
2023-03-06T18:06:42.022Z,100.00
2023-03-06T18:09:10.274Z,100.00
2023-03-06T18:11:37.520Z,100.00
2023-03-06T18:14:05.624Z,100.00
2023-03-06T18:16:32.834Z,100.00
2023-03-06T18:18:59.705Z,100.00
2023-03-06T18:21:26.799Z,100.00
2023-03-06T18:23:53.897Z,100.00
2023-03-06T18:26:23.847Z,100.00
2023-03-06T18:28:58.422Z,100.00
2023-03-06T18:31:28.564Z,100.00
2023-03-06T18:33:56.480Z,100.00
2023-03-06T18:36:25.354Z,100.00
2023-03-06T18:38:52.455Z,100.00
2023-03-06T18:41:20.886Z,100.00
2023-03-06T18:43:55.869Z,100.00
2023-03-06T18:46:23.588Z,100.00
2023-03-06T18:48:50.523Z,100.00
2023-03-06T18:51:19.474Z,100.00
2023-03-06T18:53:46.619Z,100.00
2023-03-06T18:56:18.851Z,100.00
2023-03-06T18:58:46.119Z,100.00
2023-03-06T19:01:13.117Z,100.00
2023-03-06T19:03:40.556Z,100.00
2023-03-06T19:06:12.838Z,100.00
2023-03-06T19:08:40.764Z,100.00
2023-03-06T19:11:11.076Z,100.00
2023-03-06T19:13:38.391Z,100.00
2023-03-06T19:16:05.820Z,100.00
2023-03-06T19:18:32.766Z,100.00
2023-03-06T19:21:10.970Z,100.00
2023-03-06T19:23:38.161Z,100.00
2023-03-06T19:26:06.069Z,100.00
2023-03-06T19:28:33.887Z,100.00
2023-03-06T19:31:07.013Z,100.00
2023-03-06T19:33:37.490Z,100.00
2023-03-06T19:36:10.830Z,100.00
2023-03-06T19:38:38.092Z,100.00
2023-03-06T19:41:05.790Z,100.00
2023-03-06T19:43:32.693Z,100.00
2023-03-06T19:46:00.826Z,100.00
2023-03-06T19:48:27.688Z,100.00
2023-03-06T19:50:54.468Z,100.00
2023-03-06T19:53:22.125Z,100.00
2023-03-06T19:55:49.143Z,100.00
2023-03-06T19:58:15.968Z,100.00
2023-03-06T20:00:43.210Z,100.00
2023-03-06T20:03:10.117Z,100.00
2023-03-06T20:05:37.003Z,100.00
2023-03-06T20:08:03.986Z,100.00
2023-03-06T20:10:30.751Z,100.00
2023-03-06T20:12:57.584Z,100.00
2023-03-06T20:15:24.548Z,100.00
2023-03-06T20:17:51.374Z,100.00
2023-03-06T20:20:18.276Z,100.00
2023-03-06T20:22:45.086Z,100.00
2023-03-06T20:25:11.926Z,100.00
2023-03-06T20:27:39.359Z,100.00
2023-03-06T20:30:08.128Z,100.00
2023-03-06T20:32:35.094Z,100.00
2023-03-06T20:35:02.059Z,100.00
2023-03-06T20:37:28.907Z,100.00
2023-03-06T20:39:56.017Z,100.00
2023-03-06T20:42:22.857Z,100.00
2023-03-06T20:44:49.695Z,100.00
2023-03-06T20:47:16.581Z,100.00
2023-03-06T20:49:43.408Z,100.00
2023-03-06T20:52:10.276Z,100.00
2023-03-06T20:54:37.493Z,100.00
2023-03-06T20:57:04.407Z,100.00
2023-03-06T20:59:31.335Z,100.00
2023-03-06T21:01:58.235Z,100.00
2023-03-06T21:04:25.382Z,100.00
2023-03-06T21:06:53.600Z,100.00
2023-03-06T21:09:20.508Z,100.00
2023-03-06T21:11:48.010Z,100.00
2023-03-06T21:14:15.575Z,100.00
2023-03-06T21:16:43.015Z,100.00
2023-03-06T21:19:10.302Z,100.00
2023-03-06T21:21:37.165Z,100.00
2023-03-06T21:24:04.097Z,100.00
2023-03-06T21:26:33.989Z,100.00
2023-03-06T21:29:01.895Z,100.00
2023-03-06T21:31:29.259Z,100.00
2023-03-06T21:33:56.624Z,100.00
2023-03-06T21:36:23.602Z,100.00
2023-03-06T21:38:52.333Z,100.00
2023-03-06T21:41:26.860Z,100.00
2023-03-06T21:43:57.259Z,100.00
2023-03-06T21:46:24.867Z,100.00
2023-03-06T21:48:51.910Z,100.00
2023-03-06T21:51:20.927Z,100.00
2023-03-06T21:53:48.648Z,100.00
2023-03-06T21:56:17.627Z,100.00
2023-03-06T21:58:45.018Z,100.00
2023-03-06T22:01:15.716Z,100.00
2023-03-06T22:03:42.808Z,100.00
2023-03-06T22:06:11.770Z,100.00
2023-03-06T22:08:39.340Z,100.00
2023-03-06T22:11:08.446Z,100.00
2023-03-06T22:13:36.146Z,100.00
2023-03-06T22:16:03.681Z,100.00
2023-03-06T22:18:30.721Z,100.00
2023-03-06T22:21:00.638Z,100.00
2023-03-06T22:23:27.452Z,100.00
2023-03-06T22:25:54.256Z,100.00
2023-03-06T22:28:21.088Z,100.00
2023-03-06T22:30:48.046Z,100.00
2023-03-06T22:33:14.926Z,100.00
2023-03-06T22:35:41.751Z,100.00
2023-03-06T22:38:08.735Z,100.00
2023-03-06T22:40:35.682Z,100.00
2023-03-06T22:43:02.598Z,100.00
2023-03-06T22:45:29.466Z,100.00
2023-03-06T22:48:05.566Z,100.00
2023-03-06T22:50:34.056Z,100.00
2023-03-06T22:53:01.421Z,100.00
2023-03-06T22:55:28.397Z,100.00
2023-03-06T22:57:55.793Z,100.00
2023-03-06T23:00:23.405Z,100.00
2023-03-06T23:02:50.284Z,100.00
2023-03-06T23:05:17.196Z,100.00
2023-03-06T23:07:47.203Z,100.00
2023-03-06T23:10:13.980Z,100.00
2023-03-06T23:12:59.841Z,100.00
2023-03-06T23:15:45.039Z,100.00
2023-03-06T23:18:30.916Z,100.00
2023-03-06T23:21:19.026Z,100.00
2023-03-06T23:24:05.632Z,100.00
2023-03-06T23:26:34.240Z,100.00
2023-03-06T23:29:01.714Z,100.00
2023-03-06T23:31:30.659Z,100.00
2023-03-06T23:33:59.285Z,100.00
2023-03-06T23:36:26.317Z,100.00
2023-03-06T23:38:53.594Z,100.00
2023-03-06T23:41:21.345Z,100.00
2023-03-06T23:43:48.726Z,100.00
2023-03-06T23:46:16.285Z,100.00
2023-03-06T23:48:43.867Z,100.00
2023-03-06T23:51:20.129Z,100.00
2023-03-06T23:53:48.025Z,100.00
2023-03-06T23:56:15.517Z,100.00
2023-03-06T23:58:42.639Z,100.00
